createdAt,value
2022-10-26T00:02:36.366Z,26.03
2022-10-26T00:05:28.107Z,26.03
2022-10-26T00:08:17.656Z,26.02
2022-10-26T00:11:06.801Z,26.02
2022-10-26T00:13:57.528Z,26.01
2022-10-26T00:16:45.950Z,26.01
2022-10-26T00:19:38.165Z,26.00
2022-10-26T00:22:29.559Z,26.00
2022-10-26T00:25:18.202Z,26.02
2022-10-26T00:28:06.841Z,25.96
2022-10-26T00:30:55.285Z,25.94
2022-10-26T00:33:43.948Z,25.95
2022-10-26T00:36:34.166Z,25.96
2022-10-26T00:39:22.686Z,25.95
2022-10-26T00:42:12.951Z,25.92
2022-10-26T00:45:04.544Z,25.91
2022-10-26T00:47:55.349Z,25.88
2022-10-26T00:50:45.098Z,25.90
2022-10-26T00:53:35.320Z,25.89
2022-10-26T00:56:23.997Z,25.92
2022-10-26T00:59:13.412Z,25.88
2022-10-26T01:02:01.926Z,25.91
2022-10-26T01:04:50.660Z,25.91
2022-10-26T01:07:39.236Z,25.88
2022-10-26T01:10:29.564Z,25.87
2022-10-26T01:13:18.974Z,25.83
2022-10-26T01:16:28.695Z,25.83
2022-10-26T01:19:57.496Z,25.86
2022-10-26T01:22:50.439Z,25.87
2022-10-26T01:25:52.267Z,25.88
2022-10-26T01:28:53.927Z,25.84
2022-10-26T01:31:45.654Z,25.84
2022-10-26T01:34:36.492Z,25.84
2022-10-26T01:37:28.518Z,25.86
2022-10-26T01:40:22.169Z,25.83
2022-10-26T01:43:12.916Z,25.82
2022-10-26T01:46:02.020Z,25.81
2022-10-26T01:48:52.437Z,25.82
2022-10-26T01:51:42.882Z,25.80
2022-10-26T01:54:31.499Z,25.80
2022-10-26T01:57:21.868Z,25.81
2022-10-26T02:00:11.722Z,25.77
2022-10-26T02:03:04.470Z,25.80
2022-10-26T02:06:05.489Z,25.77
2022-10-26T02:09:00.246Z,25.77
2022-10-26T02:11:51.835Z,25.77
2022-10-26T02:14:47.777Z,25.76
2022-10-26T02:17:40.196Z,25.77
2022-10-26T02:20:30.285Z,25.73
2022-10-26T02:23:20.589Z,25.77
2022-10-26T02:26:10.911Z,25.75
2022-10-26T02:29:04.159Z,25.77
2022-10-26T02:31:53.262Z,25.77
2022-10-26T02:34:43.331Z,25.79
2022-10-26T02:37:32.173Z,25.76
2022-10-26T02:40:24.277Z,25.77
2022-10-26T02:43:15.050Z,25.77
2022-10-26T02:46:08.515Z,25.75
2022-10-26T02:48:57.532Z,25.73
2022-10-26T02:54:49.917Z,25.76
2022-10-26T02:57:40.402Z,25.72
2022-10-26T03:00:29.011Z,25.75
2022-10-26T03:03:17.964Z,25.73
2022-10-26T03:06:06.667Z,25.73
2022-10-26T03:08:55.169Z,25.76
2022-10-26T03:11:43.609Z,25.73
2022-10-26T03:14:33.449Z,25.72
2022-10-26T03:17:21.901Z,25.70
2022-10-26T03:20:11.624Z,25.73
2022-10-26T03:23:00.077Z,25.73
2022-10-26T03:25:48.537Z,25.71
2022-10-26T03:28:37.032Z,25.69
2022-10-26T03:31:29.568Z,25.70
2022-10-26T03:34:18.062Z,25.70
2022-10-26T03:37:06.647Z,25.70
2022-10-26T03:39:55.166Z,25.71
2022-10-26T03:42:45.848Z,25.69
2022-10-26T03:45:34.406Z,25.69
2022-10-26T03:48:24.302Z,25.67
2022-10-26T03:51:12.850Z,25.68
2022-10-26T03:54:01.285Z,25.64
2022-10-26T03:56:52.724Z,25.61
2022-10-26T03:59:43.504Z,25.64
2022-10-26T04:02:31.917Z,25.65
2022-10-26T04:05:21.829Z,25.65
2022-10-26T04:08:10.699Z,25.67
2022-10-26T04:11:02.323Z,25.69
2022-10-26T04:13:53.009Z,25.71
2022-10-26T04:16:41.475Z,25.68
2022-10-26T04:19:29.977Z,25.72
2022-10-26T04:22:19.878Z,25.73
2022-10-26T04:25:10.430Z,25.72
2022-10-26T04:27:58.962Z,25.52
2022-10-26T04:30:49.210Z,25.47
2022-10-26T04:33:37.721Z,25.40
2022-10-26T04:36:26.478Z,25.41
2022-10-26T04:39:16.331Z,25.42
2022-10-26T04:42:04.815Z,25.47
2022-10-26T04:44:53.228Z,25.45
2022-10-26T04:47:41.761Z,25.60
2022-10-26T04:50:30.329Z,25.60
2022-10-26T04:53:18.896Z,25.59
2022-10-26T04:56:09.209Z,25.59
2022-10-26T04:58:57.635Z,25.53
2022-10-26T05:01:52.569Z,25.52
2022-10-26T05:04:41.069Z,25.54
2022-10-26T05:07:29.634Z,25.52
2022-10-26T05:10:18.178Z,25.52
2022-10-26T05:13:08.173Z,25.49
2022-10-26T05:15:56.609Z,25.52
2022-10-26T05:18:47.048Z,25.52
2022-10-26T05:21:35.564Z,25.50
2022-10-26T05:24:24.213Z,25.51
2022-10-26T05:27:12.660Z,25.51
2022-10-26T05:30:02.635Z,25.48
2022-10-26T05:32:55.339Z,25.51
2022-10-26T05:35:44.023Z,25.50
2022-10-26T05:38:32.568Z,25.49
2022-10-26T05:41:21.014Z,25.47
2022-10-26T05:44:09.501Z,25.50
2022-10-26T05:46:59.301Z,25.52
2022-10-26T05:49:48.890Z,25.49
2022-10-26T05:52:40.882Z,25.46
2022-10-26T05:55:30.007Z,25.47
2022-10-26T05:58:19.144Z,25.47
2022-10-26T06:01:15.329Z,25.48
2022-10-26T06:04:19.014Z,25.50
2022-10-26T06:07:13.308Z,25.48
2022-10-26T06:10:02.314Z,25.46
2022-10-26T06:12:51.812Z,25.46
2022-10-26T06:15:49.522Z,25.43
2022-10-26T06:18:43.905Z,25.41
2022-10-26T06:21:43.393Z,25.49
2022-10-26T06:24:37.957Z,25.47
2022-10-26T06:27:35.958Z,25.45
2022-10-26T06:30:24.497Z,25.43
2022-10-26T06:33:24.971Z,25.45
2022-10-26T06:36:23.563Z,25.42
2022-10-26T06:39:14.232Z,25.47
2022-10-26T06:42:03.294Z,25.44
2022-10-26T06:44:52.356Z,25.45
2022-10-26T06:47:42.958Z,25.63
2022-10-26T06:50:36.062Z,26.14
2022-10-26T06:53:29.246Z,26.35
2022-10-26T06:56:19.189Z,26.56
2022-10-26T06:59:10.858Z,26.64
2022-10-26T07:02:02.865Z,26.75
2022-10-26T07:04:54.316Z,26.54
2022-10-26T07:07:44.371Z,26.12
2022-10-26T07:10:37.891Z,26.04
2022-10-26T07:13:27.695Z,25.91
2022-10-26T07:16:16.237Z,25.91
2022-10-26T07:19:04.661Z,25.84
2022-10-26T07:21:53.082Z,25.86
2022-10-26T07:24:41.718Z,25.83
2022-10-26T07:27:33.110Z,25.83
2022-10-26T07:30:22.883Z,25.77
2022-10-26T07:33:13.389Z,25.76
2022-10-26T07:36:01.774Z,25.77
2022-10-26T07:38:53.690Z,25.76
2022-10-26T07:41:42.173Z,25.89
2022-10-26T07:44:30.742Z,25.88
2022-10-26T07:47:20.472Z,25.80
2022-10-26T07:50:09.537Z,25.83
2022-10-26T07:52:59.863Z,25.74
2022-10-26T07:55:54.914Z,25.72
2022-10-26T07:58:43.379Z,25.67
2022-10-26T08:01:33.566Z,25.71
2022-10-26T08:04:23.474Z,25.74
2022-10-26T08:07:11.912Z,25.77
2022-10-26T08:10:00.781Z,25.72
2022-10-26T08:12:49.207Z,25.72
2022-10-26T08:15:37.880Z,25.67
2022-10-26T08:18:26.406Z,25.71
2022-10-26T08:21:21.855Z,25.66
2022-10-26T08:24:14.516Z,25.68
2022-10-26T08:27:09.076Z,25.74
2022-10-26T08:29:57.593Z,25.71
2022-10-26T08:32:46.161Z,25.65
2022-10-26T08:35:35.463Z,25.68
2022-10-26T08:38:25.581Z,25.72
2022-10-26T08:41:14.575Z,25.71
2022-10-26T08:44:06.481Z,25.81
2022-10-26T08:46:57.346Z,25.73
2022-10-26T08:49:49.987Z,25.86
2022-10-26T08:52:42.425Z,25.92
2022-10-26T08:55:35.370Z,25.89
2022-10-26T08:58:27.046Z,25.83
2022-10-26T09:01:15.651Z,25.86
2022-10-26T09:04:05.906Z,25.95
2022-10-26T09:06:59.509Z,25.93
2022-10-26T09:09:53.882Z,25.89
2022-10-26T09:12:49.319Z,26.01
2022-10-26T09:15:49.007Z,26.00
2022-10-26T09:21:45.004Z,26.05
2022-10-26T09:24:34.384Z,26.09
2022-10-26T09:27:26.578Z,26.09
2022-10-26T09:30:18.410Z,26.09
2022-10-26T09:33:14.926Z,26.03
2022-10-26T09:36:06.979Z,25.96
2022-10-26T09:38:58.428Z,26.09
2022-10-26T09:41:49.394Z,26.12
2022-10-26T09:44:40.562Z,26.07
2022-10-26T09:47:35.326Z,26.11
2022-10-26T09:50:27.906Z,26.17
2022-10-26T09:53:17.075Z,26.11
2022-10-26T09:56:07.688Z,26.12
2022-10-26T09:59:02.106Z,26.09
2022-10-26T10:01:50.820Z,26.18
2022-10-26T10:04:47.783Z,26.10
2022-10-26T10:07:39.850Z,26.08
2022-10-26T10:10:28.577Z,26.12
2022-10-26T10:13:18.077Z,26.11
2022-10-26T10:16:09.471Z,26.13
2022-10-26T10:18:58.944Z,26.23
2022-10-26T10:21:51.667Z,26.23
2022-10-26T10:24:42.801Z,26.20
2022-10-26T10:27:33.412Z,26.16
2022-10-26T10:30:23.503Z,26.18
2022-10-26T10:33:13.013Z,26.15
2022-10-26T10:36:01.760Z,26.22
2022-10-26T10:38:52.889Z,26.22
2022-10-26T10:41:41.268Z,26.23
2022-10-26T10:44:31.641Z,26.27
2022-10-26T10:47:24.267Z,26.30
2022-10-26T10:50:20.602Z,26.34
2022-10-26T10:53:18.353Z,26.29
2022-10-26T10:56:35.250Z,26.27
2022-10-26T10:59:49.301Z,26.26
2022-10-26T11:02:59.375Z,26.26
2022-10-26T11:06:06.074Z,26.29
2022-10-26T11:08:58.819Z,26.29
2022-10-26T11:11:50.462Z,26.29
2022-10-26T11:14:43.275Z,26.20
2022-10-26T11:17:39.817Z,26.27
2022-10-26T11:20:29.937Z,26.29
2022-10-26T11:23:22.286Z,26.30
2022-10-26T11:26:14.144Z,26.20
2022-10-26T11:29:07.295Z,26.17
2022-10-26T11:32:00.134Z,26.18
2022-10-26T11:34:52.604Z,26.23
2022-10-26T11:37:46.019Z,26.17
2022-10-26T11:40:41.840Z,26.26
2022-10-26T11:43:37.957Z,26.25
2022-10-26T11:46:31.480Z,26.27
2022-10-26T11:49:24.278Z,26.27
2022-10-26T11:52:17.747Z,26.25
2022-10-26T11:55:06.943Z,26.29
2022-10-26T11:57:56.050Z,26.40
2022-10-26T12:00:49.398Z,26.36
2022-10-26T12:03:45.577Z,26.35
2022-10-26T12:06:35.206Z,26.32
2022-10-26T12:09:25.846Z,26.37
2022-10-26T12:12:20.997Z,26.39
2022-10-26T12:15:19.727Z,26.39
2022-10-26T12:18:16.163Z,26.45
2022-10-26T12:21:07.820Z,26.51
2022-10-26T12:23:57.803Z,26.49
2022-10-26T12:26:53.876Z,26.46
2022-10-26T12:30:24.951Z,26.57
2022-10-26T12:33:33.547Z,26.44
2022-10-26T12:36:51.649Z,26.46
2022-10-26T12:39:41.372Z,26.55
2022-10-26T12:42:31.096Z,26.60
2022-10-26T12:45:21.709Z,26.69
2022-10-26T12:48:38.764Z,26.69
2022-10-26T12:51:44.106Z,26.80
2022-10-26T12:54:40.247Z,26.76
2022-10-26T12:57:33.255Z,26.73
2022-10-26T13:00:25.142Z,26.68
2022-10-26T13:03:23.736Z,26.66
2022-10-26T13:06:22.425Z,26.58
2022-10-26T13:09:19.155Z,26.54
2022-10-26T13:12:10.398Z,26.52
2022-10-26T13:15:05.545Z,26.44
2022-10-26T13:17:59.876Z,26.54
2022-10-26T13:20:55.229Z,26.52
2022-10-26T13:23:45.794Z,26.52
2022-10-26T13:27:13.029Z,26.59
2022-10-26T13:30:44.435Z,26.62
2022-10-26T13:33:38.821Z,26.59
2022-10-26T13:36:32.836Z,26.53
2022-10-26T13:39:23.539Z,26.50
2022-10-26T13:42:17.077Z,26.56
2022-10-26T13:45:10.160Z,26.57
2022-10-26T13:48:03.173Z,26.54
2022-10-26T13:50:54.308Z,26.51
2022-10-26T13:53:46.657Z,26.44
2022-10-26T13:56:36.781Z,26.46
2022-10-26T13:59:26.494Z,26.48
2022-10-26T14:02:20.826Z,26.53
2022-10-26T14:05:14.406Z,26.49
2022-10-26T14:08:02.952Z,26.55
2022-10-26T14:10:55.082Z,26.44
2022-10-26T14:13:43.675Z,26.39
2022-10-26T14:16:33.632Z,26.34
2022-10-26T14:19:24.298Z,26.40
2022-10-26T14:22:23.115Z,26.38
2022-10-26T14:25:26.710Z,26.34
2022-10-26T14:28:26.088Z,26.31
2022-10-26T14:31:18.086Z,26.28
2022-10-26T14:34:08.850Z,26.26
2022-10-26T14:36:59.766Z,26.26
2022-10-26T14:39:49.753Z,26.27
2022-10-26T14:42:41.304Z,26.32
2022-10-26T14:45:50.339Z,26.33
2022-10-26T14:48:41.911Z,26.32
2022-10-26T14:51:31.443Z,26.40
2022-10-26T14:54:22.165Z,26.45
2022-10-26T14:57:32.369Z,26.45
2022-10-26T15:00:23.916Z,26.48
2022-10-26T15:03:17.978Z,26.38
2022-10-26T15:06:30.406Z,26.38
2022-10-26T15:09:43.634Z,26.36
2022-10-26T15:12:36.343Z,26.37
2022-10-26T15:15:25.652Z,26.32
2022-10-26T15:18:21.038Z,26.19
2022-10-26T15:21:23.185Z,26.12
2022-10-26T15:24:31.020Z,26.14
2022-10-26T15:27:22.022Z,26.14
2022-10-26T15:30:19.368Z,26.05
2022-10-26T15:33:21.961Z,26.05
2022-10-26T15:36:18.238Z,26.04
2022-10-26T15:39:06.842Z,26.04
2022-10-26T15:41:55.918Z,25.99
2022-10-26T15:44:44.429Z,26.02
2022-10-26T15:47:36.654Z,25.97
2022-10-26T15:50:27.166Z,25.97
2022-10-26T15:53:20.039Z,25.99
2022-10-26T15:56:15.539Z,25.99
2022-10-26T15:59:04.046Z,25.96
2022-10-26T16:01:53.121Z,25.97
2022-10-26T16:04:43.151Z,25.91
2022-10-26T16:07:31.695Z,25.88
2022-10-26T16:10:23.434Z,25.92
2022-10-26T16:13:13.937Z,25.87
2022-10-26T16:16:02.895Z,25.94
2022-10-26T16:19:06.091Z,25.92
2022-10-26T16:22:02.432Z,25.92
2022-10-26T16:24:50.974Z,25.94
2022-10-26T16:27:39.549Z,25.91
2022-10-26T16:30:30.395Z,25.97
2022-10-26T16:33:19.123Z,25.99
2022-10-26T16:36:08.614Z,25.98
2022-10-26T16:38:58.656Z,26.13
2022-10-26T16:41:47.162Z,26.10
2022-10-26T16:44:36.438Z,26.20
2022-10-26T16:47:25.108Z,26.30
2022-10-26T16:50:16.884Z,26.15
2022-10-26T16:53:05.477Z,26.22
2022-10-26T16:55:55.271Z,26.26
2022-10-26T16:58:43.738Z,26.08
2022-10-26T17:01:32.228Z,26.23
2022-10-26T17:04:20.875Z,26.22
2022-10-26T17:07:09.351Z,26.21
2022-10-26T17:09:57.886Z,26.11
2022-10-26T17:12:47.838Z,25.92
2022-10-26T17:15:36.574Z,25.87
2022-10-26T17:18:25.036Z,25.93
2022-10-26T17:21:15.469Z,26.08
2022-10-26T17:24:04.055Z,26.24
2022-10-26T17:26:52.427Z,26.28
2022-10-26T17:29:42.287Z,26.25
2022-10-26T17:32:32.015Z,26.40
2022-10-26T17:35:20.517Z,26.51
2022-10-26T17:38:08.976Z,26.48
2022-10-26T17:41:01.936Z,26.63
2022-10-26T17:43:51.083Z,26.66
2022-10-26T17:46:40.948Z,26.62
2022-10-26T17:49:31.213Z,26.55
2022-10-26T17:52:24.656Z,26.70
2022-10-26T17:55:13.121Z,26.59
2022-10-26T17:58:01.576Z,26.53
2022-10-26T18:00:50.368Z,26.49
2022-10-26T18:03:40.771Z,26.62
2022-10-26T18:06:29.565Z,26.69
2022-10-26T18:09:18.114Z,26.85
2022-10-26T18:12:07.339Z,26.82
2022-10-26T18:14:55.732Z,26.87
2022-10-26T18:17:45.157Z,26.80
2022-10-26T18:20:35.221Z,26.80
2022-10-26T18:23:23.667Z,26.84
2022-10-26T18:26:15.796Z,26.88
2022-10-26T18:29:06.149Z,26.98
2022-10-26T18:31:54.520Z,27.07
2022-10-26T18:34:43.140Z,27.08
2022-10-26T18:37:32.915Z,27.00
2022-10-26T18:40:21.488Z,27.03
2022-10-26T18:43:09.960Z,27.02
2022-10-26T18:46:08.926Z,26.97
2022-10-26T18:48:58.076Z,27.05
2022-10-26T18:51:46.559Z,27.10
2022-10-26T18:54:36.416Z,27.20
2022-10-26T18:57:27.018Z,27.31
2022-10-26T19:00:16.327Z,27.34
2022-10-26T19:03:06.395Z,27.32
2022-10-26T19:05:54.833Z,27.23
2022-10-26T19:08:44.233Z,27.31
2022-10-26T19:11:35.638Z,27.35
2022-10-26T19:14:24.043Z,27.17
2022-10-26T19:17:12.432Z,27.35
2022-10-26T19:20:00.934Z,27.26
2022-10-26T19:22:49.605Z,27.33
2022-10-26T19:25:38.264Z,27.39
2022-10-26T19:28:28.326Z,27.22
2022-10-26T19:31:17.326Z,27.36
2022-10-26T19:34:07.994Z,27.46
2022-10-26T19:36:56.625Z,27.51
2022-10-26T19:39:47.198Z,27.47
2022-10-26T19:42:35.568Z,27.58
2022-10-26T19:45:25.408Z,27.38
2022-10-26T19:48:13.860Z,27.38
2022-10-26T19:51:02.480Z,27.34
2022-10-26T19:53:51.212Z,27.43
2022-10-26T19:56:39.829Z,27.60
2022-10-26T19:59:28.196Z,27.61
2022-10-26T20:02:18.164Z,27.73
2022-10-26T20:05:07.417Z,27.66
2022-10-26T20:07:55.960Z,27.70
2022-10-26T20:10:45.635Z,27.47
2022-10-26T20:13:34.939Z,27.65
2022-10-26T20:16:23.375Z,27.63
2022-10-26T20:19:13.217Z,27.52
2022-10-26T20:22:01.768Z,27.60
2022-10-26T20:24:50.230Z,27.54
2022-10-26T20:27:41.765Z,27.52
2022-10-26T20:30:33.674Z,27.70
2022-10-26T20:33:22.202Z,27.72
2022-10-26T20:36:12.251Z,27.77
2022-10-26T20:39:01.281Z,27.84
2022-10-26T20:41:50.615Z,27.91
2022-10-26T20:44:43.183Z,27.70
2022-10-26T20:47:32.369Z,27.56
2022-10-26T20:50:21.703Z,27.31
2022-10-26T20:53:16.241Z,27.29
2022-10-26T20:56:08.407Z,27.44
2022-10-26T20:58:58.205Z,27.40
2022-10-26T21:01:46.863Z,27.46
2022-10-26T21:04:35.311Z,27.44
2022-10-26T21:07:23.851Z,27.31
2022-10-26T21:10:13.655Z,27.22
2022-10-26T21:13:02.172Z,27.17
2022-10-26T21:15:50.673Z,27.13
2022-10-26T21:18:39.105Z,27.11
2022-10-26T21:21:27.568Z,27.10
2022-10-26T21:24:15.973Z,27.25
2022-10-26T21:27:05.799Z,27.14
2022-10-26T21:29:54.250Z,27.23
2022-10-26T21:32:42.769Z,27.29
2022-10-26T21:35:31.205Z,27.36
2022-10-26T21:38:26.244Z,27.09
2022-10-26T21:41:15.903Z,27.03
2022-10-26T21:44:09.911Z,27.07
2022-10-26T21:47:05.788Z,27.04
2022-10-26T21:49:54.277Z,27.03
2022-10-26T21:52:42.829Z,26.90
2022-10-26T21:55:31.367Z,26.89
2022-10-26T21:58:20.005Z,26.96
2022-10-26T22:01:11.157Z,26.91
2022-10-26T22:03:59.873Z,26.80
2022-10-26T22:06:49.381Z,26.76
2022-10-26T22:09:45.026Z,26.74
2022-10-26T22:12:46.437Z,26.73
2022-10-26T22:15:34.990Z,26.76
2022-10-26T22:18:24.751Z,26.76
2022-10-26T22:21:13.906Z,26.75
2022-10-26T22:24:02.695Z,26.73
2022-10-26T22:26:51.120Z,26.70
2022-10-26T22:29:39.621Z,26.70
2022-10-26T22:32:28.141Z,26.68
2022-10-26T22:35:35.842Z,26.68
2022-10-26T22:38:24.410Z,26.69
2022-10-26T22:41:13.333Z,26.72
2022-10-26T22:44:01.834Z,26.72
2022-10-26T22:46:50.514Z,26.77
2022-10-26T22:49:39.094Z,26.76
2022-10-26T22:52:28.832Z,26.72
2022-10-26T22:55:17.505Z,26.73
2022-10-26T22:58:06.035Z,26.66
2022-10-26T23:00:54.598Z,26.65
2022-10-26T23:03:43.568Z,26.63
2022-10-26T23:06:33.255Z,26.61
2022-10-26T23:09:23.091Z,26.60
2022-10-26T23:12:11.607Z,26.59
2022-10-26T23:15:00.197Z,26.60
2022-10-26T23:17:49.353Z,26.57
2022-10-26T23:20:38.086Z,26.61
2022-10-26T23:23:26.540Z,26.57
2022-10-26T23:26:17.545Z,26.55
2022-10-26T23:29:06.049Z,26.50
2022-10-26T23:31:54.473Z,26.50
2022-10-26T23:34:42.889Z,26.49
2022-10-26T23:37:31.369Z,26.53
2022-10-26T23:40:22.106Z,26.48
2022-10-26T23:43:11.946Z,26.49
2022-10-26T23:46:00.504Z,26.45
2022-10-26T23:48:49.038Z,26.44
2022-10-26T23:51:37.515Z,26.43
2022-10-26T23:54:26.073Z,26.42
2022-10-26T23:57:14.574Z,26.43
